sensor_id;sensor_type;location;lat;lon;timestamp;P1;durP1;ratioP1;P2;durP2;ratioP2
14306;SDS011;7237;49.500;11.400;2022-08-01T00:01:32;4.55;;;3.13;;
14306;SDS011;7237;49.500;11.400;2022-08-01T00:03:59;3.55;;;3.25;;
14306;SDS011;7237;49.500;11.400;2022-08-01T00:06:26;3.50;;;3.30;;
14306;SDS011;7237;49.500;11.400;2022-08-01T00:08:53;4.13;;;3.38;;
14306;SDS011;7237;49.500;11.400;2022-08-01T00:11:20;5.15;;;3.03;;
14306;SDS011;7237;49.500;11.400;2022-08-01T00:13:49;6.00;;;3.33;;
14306;SDS011;7237;49.500;11.400;2022-08-01T00:16:16;3.25;;;2.97;;
14306;SDS011;7237;49.500;11.400;2022-08-01T00:18:43;3.47;;;3.05;;
14306;SDS011;7237;49.500;11.400;2022-08-01T00:21:10;3.75;;;3.15;;
14306;SDS011;7237;49.500;11.400;2022-08-01T00:23:37;3.92;;;3.58;;
14306;SDS011;7237;49.500;11.400;2022-08-01T00:26:04;4.00;;;3.60;;
14306;SDS011;7237;49.500;11.400;2022-08-01T00:28:31;5.05;;;3.70;;
14306;SDS011;7237;49.500;11.400;2022-08-01T00:31:00;4.15;;;3.45;;
14306;SDS011;7237;49.500;11.400;2022-08-01T00:33:27;3.90;;;3.60;;
14306;SDS011;7237;49.500;11.400;2022-08-01T00:35:54;3.72;;;3.42;;
14306;SDS011;7237;49.500;11.400;2022-08-01T00:38:21;6.13;;;3.95;;
14306;SDS011;7237;49.500;11.400;2022-08-01T00:40:48;3.53;;;3.05;;
14306;SDS011;7237;49.500;11.400;2022-08-01T00:43:15;3.67;;;3.25;;
14306;SDS011;7237;49.500;11.400;2022-08-01T00:45:42;4.32;;;3.67;;
14306;SDS011;7237;49.500;11.400;2022-08-01T00:48:11;5.13;;;3.63;;
14306;SDS011;7237;49.500;11.400;2022-08-01T00:50:38;3.63;;;3.08;;
14306;SDS011;7237;49.500;11.400;2022-08-01T00:53:05;3.75;;;3.28;;
14306;SDS011;7237;49.500;11.400;2022-08-01T00:55:32;3.70;;;3.40;;
14306;SDS011;7237;49.500;11.400;2022-08-01T00:57:59;3.90;;;3.50;;
14306;SDS011;7237;49.500;11.400;2022-08-01T01:00:26;4.43;;;3.75;;
14306;SDS011;7237;49.500;11.400;2022-08-01T01:02:54;9.32;;;4.00;;
14306;SDS011;7237;49.500;11.400;2022-08-01T01:05:22;4.70;;;4.10;;
14306;SDS011;7237;49.500;11.400;2022-08-01T01:07:50;4.20;;;3.90;;
14306;SDS011;7237;49.500;11.400;2022-08-01T01:10:21;4.88;;;3.72;;
14306;SDS011;7237;49.500;11.400;2022-08-01T01:12:50;5.10;;;4.18;;
14306;SDS011;7237;49.500;11.400;2022-08-01T01:15:20;4.43;;;3.80;;
14306;SDS011;7237;49.500;11.400;2022-08-01T01:17:51;7.63;;;4.22;;
14306;SDS011;7237;49.500;11.400;2022-08-01T01:20:20;4.15;;;3.85;;
14306;SDS011;7237;49.500;11.400;2022-08-01T01:22:55;4.10;;;3.38;;
14306;SDS011;7237;49.500;11.400;2022-08-01T01:25:34;5.25;;;3.70;;
14306;SDS011;7237;49.500;11.400;2022-08-01T01:28:07;3.70;;;3.40;;
14306;SDS011;7237;49.500;11.400;2022-08-01T01:30:36;3.78;;;3.45;;
14306;SDS011;7237;49.500;11.400;2022-08-01T01:33:05;5.25;;;3.90;;
14306;SDS011;7237;49.500;11.400;2022-08-01T01:35:36;5.47;;;4.50;;
14306;SDS011;7237;49.500;11.400;2022-08-01T01:38:05;3.70;;;3.40;;
14306;SDS011;7237;49.500;11.400;2022-08-01T01:40:34;4.15;;;3.78;;
14306;SDS011;7237;49.500;11.400;2022-08-01T01:43:01;4.82;;;4.20;;
14306;SDS011;7237;49.500;11.400;2022-08-01T01:45:28;4.60;;;4.10;;
14306;SDS011;7237;49.500;11.400;2022-08-01T01:47:57;7.35;;;3.65;;
14306;SDS011;7237;49.500;11.400;2022-08-01T01:50:25;4.55;;;3.85;;
14306;SDS011;7237;49.500;11.400;2022-08-01T01:52:53;5.78;;;4.10;;
14306;SDS011;7237;49.500;11.400;2022-08-01T01:55:20;4.47;;;4.07;;
14306;SDS011;7237;49.500;11.400;2022-08-01T01:57:49;4.85;;;3.67;;
14306;SDS011;7237;49.500;11.400;2022-08-01T02:00:17;4.38;;;3.97;;
14306;SDS011;7237;49.500;11.400;2022-08-01T02:02:44;4.47;;;3.47;;
14306;SDS011;7237;49.500;11.400;2022-08-01T02:05:13;7.53;;;3.73;;
14306;SDS011;7237;49.500;11.400;2022-08-01T02:07:40;3.95;;;3.47;;
14306;SDS011;7237;49.500;11.400;2022-08-01T02:10:08;3.67;;;3.38;;
14306;SDS011;7237;49.500;11.400;2022-08-01T02:12:37;4.35;;;3.83;;
14306;SDS011;7237;49.500;11.400;2022-08-01T02:15:06;4.40;;;4.00;;
14306;SDS011;7237;49.500;11.400;2022-08-01T02:17:34;5.50;;;4.10;;
14306;SDS011;7237;49.500;11.400;2022-08-01T02:20:04;4.30;;;3.90;;
14306;SDS011;7237;49.500;11.400;2022-08-01T02:22:34;4.47;;;4.18;;
14306;SDS011;7237;49.500;11.400;2022-08-01T02:25:06;8.87;;;4.10;;
14306;SDS011;7237;49.500;11.400;2022-08-01T02:27:37;7.57;;;3.90;;
14306;SDS011;7237;49.500;11.400;2022-08-01T02:30:07;4.07;;;3.70;;
14306;SDS011;7237;49.500;11.400;2022-08-01T02:32:36;4.93;;;3.60;;
14306;SDS011;7237;49.500;11.400;2022-08-01T02:35:04;5.67;;;4.10;;
14306;SDS011;7237;49.500;11.400;2022-08-01T02:37:34;4.50;;;4.10;;
14306;SDS011;7237;49.500;11.400;2022-08-01T02:40:03;3.93;;;3.63;;
14306;SDS011;7237;49.500;11.400;2022-08-01T02:42:30;4.40;;;4.10;;
14306;SDS011;7237;49.500;11.400;2022-08-01T02:44:58;6.63;;;3.87;;
14306;SDS011;7237;49.500;11.400;2022-08-01T02:47:26;4.63;;;4.23;;
14306;SDS011;7237;49.500;11.400;2022-08-01T02:49:54;4.30;;;4.00;;
14306;SDS011;7237;49.500;11.400;2022-08-01T02:52:23;4.50;;;4.10;;
14306;SDS011;7237;49.500;11.400;2022-08-01T02:54:53;4.30;;;3.90;;
14306;SDS011;7237;49.500;11.400;2022-08-01T02:57:21;4.33;;;4.03;;
14306;SDS011;7237;49.500;11.400;2022-08-01T02:59:49;4.20;;;3.80;;
14306;SDS011;7237;49.500;11.400;2022-08-01T03:02:17;4.43;;;4.03;;
14306;SDS011;7237;49.500;11.400;2022-08-01T03:04:44;4.40;;;4.10;;
14306;SDS011;7237;49.500;11.400;2022-08-01T03:07:12;4.67;;;4.23;;
14306;SDS011;7237;49.500;11.400;2022-08-01T03:09:40;5.80;;;4.43;;
14306;SDS011;7237;49.500;11.400;2022-08-01T03:12:10;4.63;;;3.60;;
14306;SDS011;7237;49.500;11.400;2022-08-01T03:14:38;4.60;;;4.00;;
14306;SDS011;7237;49.500;11.400;2022-08-01T03:17:06;4.33;;;3.93;;
14306;SDS011;7237;49.500;11.400;2022-08-01T03:19:34;4.47;;;3.97;;
14306;SDS011;7237;49.500;11.400;2022-08-01T03:22:02;5.60;;;3.97;;
14306;SDS011;7237;49.500;11.400;2022-08-01T03:24:33;4.53;;;4.13;;
14306;SDS011;7237;49.500;11.400;2022-08-01T03:27:00;4.40;;;4.00;;
14306;SDS011;7237;49.500;11.400;2022-08-01T03:29:30;5.03;;;4.57;;
14306;SDS011;7237;49.500;11.400;2022-08-01T03:31:59;4.70;;;4.30;;
14306;SDS011;7237;49.500;11.400;2022-08-01T03:34:27;5.67;;;4.60;;
14306;SDS011;7237;49.500;11.400;2022-08-01T03:36:55;4.60;;;4.30;;
14306;SDS011;7237;49.500;11.400;2022-08-01T03:39:25;5.10;;;4.60;;
14306;SDS011;7237;49.500;11.400;2022-08-01T03:41:55;7.23;;;4.60;;
14306;SDS011;7237;49.500;11.400;2022-08-01T03:44:24;5.73;;;4.60;;
14306;SDS011;7237;49.500;11.400;2022-08-01T03:46:56;6.33;;;4.60;;
14306;SDS011;7237;49.500;11.400;2022-08-01T03:49:25;5.10;;;4.53;;
14306;SDS011;7237;49.500;11.400;2022-08-01T03:51:55;5.97;;;4.80;;
14306;SDS011;7237;49.500;11.400;2022-08-01T03:54:24;6.27;;;4.87;;
14306;SDS011;7237;49.500;11.400;2022-08-01T03:56:51;7.23;;;5.10;;
14306;SDS011;7237;49.500;11.400;2022-08-01T03:59:18;7.07;;;5.67;;
14306;SDS011;7237;49.500;11.400;2022-08-01T04:01:46;5.40;;;4.90;;
14306;SDS011;7237;49.500;11.400;2022-08-01T04:04:14;5.23;;;4.73;;
14306;SDS011;7237;49.500;11.400;2022-08-01T04:06:42;6.30;;;4.97;;
14306;SDS011;7237;49.500;11.400;2022-08-01T04:09:10;5.30;;;4.90;;
14306;SDS011;7237;49.500;11.400;2022-08-01T04:11:37;5.40;;;4.97;;
14306;SDS011;7237;49.500;11.400;2022-08-01T04:14:05;5.33;;;4.80;;
14306;SDS011;7237;49.500;11.400;2022-08-01T04:16:32;5.13;;;4.67;;
14306;SDS011;7237;49.500;11.400;2022-08-01T04:18:59;5.40;;;4.90;;
14306;SDS011;7237;49.500;11.400;2022-08-01T04:21:28;6.60;;;4.60;;
14306;SDS011;7237;49.500;11.400;2022-08-01T04:23:58;5.20;;;4.70;;
14306;SDS011;7237;49.500;11.400;2022-08-01T04:26:25;5.70;;;4.83;;
14306;SDS011;7237;49.500;11.400;2022-08-01T04:28:54;5.40;;;5.00;;
14306;SDS011;7237;49.500;11.400;2022-08-01T04:31:22;5.27;;;4.77;;
14306;SDS011;7237;49.500;11.400;2022-08-01T04:33:51;5.50;;;5.00;;
14306;SDS011;7237;49.500;11.400;2022-08-01T04:36:20;7.10;;;4.80;;
14306;SDS011;7237;49.500;11.400;2022-08-01T04:38:52;6.17;;;5.03;;
14306;SDS011;7237;49.500;11.400;2022-08-01T04:41:19;7.70;;;5.00;;
14306;SDS011;7237;49.500;11.400;2022-08-01T04:43:46;5.60;;;5.10;;
14306;SDS011;7237;49.500;11.400;2022-08-01T04:46:14;6.17;;;5.03;;
14306;SDS011;7237;49.500;11.400;2022-08-01T04:48:42;5.80;;;5.03;;
14306;SDS011;7237;49.500;11.400;2022-08-01T04:51:12;5.50;;;5.00;;
14306;SDS011;7237;49.500;11.400;2022-08-01T04:53:41;5.27;;;4.80;;
14306;SDS011;7237;49.500;11.400;2022-08-01T04:56:09;5.23;;;4.57;;
14306;SDS011;7237;49.500;11.400;2022-08-01T04:58:38;5.10;;;4.22;;
14306;SDS011;7237;49.500;11.400;2022-08-01T05:01:05;4.60;;;4.20;;
14306;SDS011;7237;49.500;11.400;2022-08-01T05:03:32;4.38;;;3.97;;
14306;SDS011;7237;49.500;11.400;2022-08-01T05:05:59;6.65;;;3.30;;
14306;SDS011;7237;49.500;11.400;2022-08-01T05:08:26;3.95;;;3.13;;
14306;SDS011;7237;49.500;11.400;2022-08-01T05:10:53;4.00;;;3.13;;
14306;SDS011;7237;49.500;11.400;2022-08-01T05:13:22;4.68;;;3.17;;
14306;SDS011;7237;49.500;11.400;2022-08-01T05:15:49;4.05;;;3.60;;
14306;SDS011;7237;49.500;11.400;2022-08-01T05:18:17;5.95;;;3.63;;
14306;SDS011;7237;49.500;11.400;2022-08-01T05:20:44;7.63;;;4.03;;
14306;SDS011;7237;49.500;11.400;2022-08-01T05:23:12;5.10;;;3.33;;
14306;SDS011;7237;49.500;11.400;2022-08-01T05:25:39;5.40;;;3.88;;
14306;SDS011;7237;49.500;11.400;2022-08-01T05:28:06;6.68;;;3.90;;
14306;SDS011;7237;49.500;11.400;2022-08-01T05:30:34;7.85;;;4.00;;
14306;SDS011;7237;49.500;11.400;2022-08-01T05:33:01;7.93;;;4.38;;
14306;SDS011;7237;49.500;11.400;2022-08-01T05:35:28;4.78;;;4.38;;
14306;SDS011;7237;49.500;11.400;2022-08-01T05:37:55;5.78;;;4.47;;
14306;SDS011;7237;49.500;11.400;2022-08-01T05:40:22;5.38;;;4.63;;
14306;SDS011;7237;49.500;11.400;2022-08-01T05:42:49;4.20;;;3.90;;
14306;SDS011;7237;49.500;11.400;2022-08-01T05:45:16;5.18;;;4.05;;
14306;SDS011;7237;49.500;11.400;2022-08-01T05:47:45;5.47;;;4.22;;
14306;SDS011;7237;49.500;11.400;2022-08-01T05:50:12;7.72;;;4.15;;
14306;SDS011;7237;49.500;11.400;2022-08-01T05:52:39;5.47;;;3.63;;
14306;SDS011;7237;49.500;11.400;2022-08-01T05:55:06;5.05;;;3.90;;
14306;SDS011;7237;49.500;11.400;2022-08-01T05:57:34;5.32;;;3.90;;
14306;SDS011;7237;49.500;11.400;2022-08-01T06:00:01;8.65;;;3.60;;
14306;SDS011;7237;49.500;11.400;2022-08-01T06:02:28;3.42;;;3.10;;
14306;SDS011;7237;49.500;11.400;2022-08-01T06:04:56;5.18;;;3.42;;
14306;SDS011;7237;49.500;11.400;2022-08-01T06:07:23;4.40;;;3.80;;
14306;SDS011;7237;49.500;11.400;2022-08-01T06:09:51;5.95;;;4.35;;
14306;SDS011;7237;49.500;11.400;2022-08-01T06:12:18;5.40;;;4.05;;
14306;SDS011;7237;49.500;11.400;2022-08-01T06:14:45;9.57;;;4.40;;
14306;SDS011;7237;49.500;11.400;2022-08-01T06:17:12;5.57;;;3.95;;
14306;SDS011;7237;49.500;11.400;2022-08-01T06:19:39;4.25;;;3.88;;
14306;SDS011;7237;49.500;11.400;2022-08-01T06:22:07;5.38;;;4.13;;
14306;SDS011;7237;49.500;11.400;2022-08-01T06:24:34;4.28;;;3.80;;
14306;SDS011;7237;49.500;11.400;2022-08-01T06:27:01;5.05;;;4.10;;
14306;SDS011;7237;49.500;11.400;2022-08-01T06:29:29;4.93;;;3.70;;
14306;SDS011;7237;49.500;11.400;2022-08-01T06:31:56;5.65;;;3.80;;
14306;SDS011;7237;49.500;11.400;2022-08-01T06:34:24;4.43;;;4.03;;
14306;SDS011;7237;49.500;11.400;2022-08-01T06:36:51;7.18;;;4.10;;
14306;SDS011;7237;49.500;11.400;2022-08-01T06:39:19;5.85;;;4.00;;
14306;SDS011;7237;49.500;11.400;2022-08-01T06:41:46;5.57;;;3.63;;
14306;SDS011;7237;49.500;11.400;2022-08-01T06:44:13;4.20;;;3.20;;
14306;SDS011;7237;49.500;11.400;2022-08-01T06:46:40;5.30;;;3.15;;
14306;SDS011;7237;49.500;11.400;2022-08-01T06:49:07;5.75;;;3.08;;
14306;SDS011;7237;49.500;11.400;2022-08-01T06:51:34;3.53;;;3.20;;
14306;SDS011;7237;49.500;11.400;2022-08-01T06:54:01;3.95;;;3.10;;
14306;SDS011;7237;49.500;11.400;2022-08-01T06:56:30;4.15;;;3.30;;
14306;SDS011;7237;49.500;11.400;2022-08-01T06:58:57;3.17;;;2.88;;
14306;SDS011;7237;49.500;11.400;2022-08-01T07:01:26;5.88;;;2.67;;
14306;SDS011;7237;49.500;11.400;2022-08-01T07:03:53;3.42;;;2.85;;
14306;SDS011;7237;49.500;11.400;2022-08-01T07:06:21;4.63;;;2.70;;
14306;SDS011;7237;49.500;11.400;2022-08-01T07:08:48;4.50;;;2.70;;
14306;SDS011;7237;49.500;11.400;2022-08-01T07:11:15;3.75;;;2.90;;
14306;SDS011;7237;49.500;11.400;2022-08-01T07:13:43;3.20;;;2.72;;
14306;SDS011;7237;49.500;11.400;2022-08-01T07:16:11;3.90;;;2.80;;
14306;SDS011;7237;49.500;11.400;2022-08-01T07:18:38;5.10;;;2.47;;
14306;SDS011;7237;49.500;11.400;2022-08-01T07:21:05;2.60;;;2.40;;
14306;SDS011;7237;49.500;11.400;2022-08-01T07:23:32;2.90;;;2.40;;
14306;SDS011;7237;49.500;11.400;2022-08-01T07:25:59;1.98;;;1.88;;
14306;SDS011;7237;49.500;11.400;2022-08-01T07:28:27;2.35;;;1.90;;
14306;SDS011;7237;49.500;11.400;2022-08-01T07:30:55;5.10;;;2.08;;
14306;SDS011;7237;49.500;11.400;2022-08-01T07:33:22;2.25;;;2.00;;
14306;SDS011;7237;49.500;11.400;2022-08-01T07:35:49;1.88;;;1.77;;
14306;SDS011;7237;49.500;11.400;2022-08-01T07:38:16;2.38;;;1.80;;
14306;SDS011;7237;49.500;11.400;2022-08-01T07:40:43;2.72;;;1.90;;
14306;SDS011;7237;49.500;11.400;2022-08-01T07:43:11;1.85;;;1.75;;
14306;SDS011;7237;49.500;11.400;2022-08-01T07:45:38;2.50;;;2.30;;
14306;SDS011;7237;49.500;11.400;2022-08-01T07:48:07;3.88;;;2.30;;
14306;SDS011;7237;49.500;11.400;2022-08-01T07:50:34;2.65;;;2.40;;
14306;SDS011;7237;49.500;11.400;2022-08-01T07:53:01;4.00;;;2.30;;
14306;SDS011;7237;49.500;11.400;2022-08-01T07:55:29;3.42;;;2.17;;
14306;SDS011;7237;49.500;11.400;2022-08-01T07:57:56;3.58;;;2.00;;
14306;SDS011;7237;49.500;11.400;2022-08-01T08:00:23;2.13;;;1.90;;
14306;SDS011;7237;49.500;11.400;2022-08-01T08:02:52;3.05;;;1.88;;
14306;SDS011;7237;49.500;11.400;2022-08-01T08:05:21;2.15;;;1.80;;
14306;SDS011;7237;49.500;11.400;2022-08-01T08:07:48;2.60;;;1.90;;
14306;SDS011;7237;49.500;11.400;2022-08-01T08:10:15;4.13;;;1.90;;
14306;SDS011;7237;49.500;11.400;2022-08-01T08:12:42;3.17;;;1.90;;
14306;SDS011;7237;49.500;11.400;2022-08-01T08:15:11;1.90;;;1.80;;
14306;SDS011;7237;49.500;11.400;2022-08-01T08:17:38;2.97;;;1.83;;
14306;SDS011;7237;49.500;11.400;2022-08-01T08:20:06;2.65;;;2.30;;
14306;SDS011;7237;49.500;11.400;2022-08-01T08:22:35;3.60;;;2.30;;
14306;SDS011;7237;49.500;11.400;2022-08-01T08:25:02;2.53;;;2.15;;
14306;SDS011;7237;49.500;11.400;2022-08-01T08:27:29;2.25;;;2.00;;
14306;SDS011;7237;49.500;11.400;2022-08-01T08:29:57;3.30;;;1.70;;
14306;SDS011;7237;49.500;11.400;2022-08-01T08:32:24;5.05;;;2.28;;
14306;SDS011;7237;49.500;11.400;2022-08-01T08:34:51;3.53;;;2.08;;
14306;SDS011;7237;49.500;11.400;2022-08-01T08:37:18;2.13;;;1.90;;
14306;SDS011;7237;49.500;11.400;2022-08-01T08:39:46;3.17;;;1.80;;
14306;SDS011;7237;49.500;11.400;2022-08-01T08:42:13;6.00;;;1.70;;
14306;SDS011;7237;49.500;11.400;2022-08-01T08:44:40;2.45;;;2.10;;
14306;SDS011;7237;49.500;11.400;2022-08-01T08:47:08;2.30;;;2.10;;
14306;SDS011;7237;49.500;11.400;2022-08-01T08:49:36;3.08;;;1.88;;
14306;SDS011;7237;49.500;11.400;2022-08-01T08:52:04;3.63;;;1.90;;
14306;SDS011;7237;49.500;11.400;2022-08-01T08:54:31;1.98;;;1.80;;
14306;SDS011;7237;49.500;11.400;2022-08-01T08:57:00;2.47;;;1.65;;
14306;SDS011;7237;49.500;11.400;2022-08-01T08:59:27;2.38;;;2.10;;
14306;SDS011;7237;49.500;11.400;2022-08-01T09:01:55;2.95;;;1.85;;
14306;SDS011;7237;49.500;11.400;2022-08-01T09:04:22;1.88;;;1.77;;
14306;SDS011;7237;49.500;11.400;2022-08-01T09:06:49;4.68;;;1.90;;
14306;SDS011;7237;49.500;11.400;2022-08-01T09:09:16;2.08;;;1.90;;
14306;SDS011;7237;49.500;11.400;2022-08-01T09:11:44;2.85;;;1.77;;
14306;SDS011;7237;49.500;11.400;2022-08-01T09:14:13;3.85;;;2.15;;
14306;SDS011;7237;49.500;11.400;2022-08-01T09:16:47;3.88;;;1.77;;
14306;SDS011;7237;49.500;11.400;2022-08-01T09:19:24;2.50;;;1.60;;
14306;SDS011;7237;49.500;11.400;2022-08-01T09:21:55;4.13;;;1.70;;
14306;SDS011;7237;49.500;11.400;2022-08-01T09:24:24;2.17;;;1.70;;
14306;SDS011;7237;49.500;11.400;2022-08-01T09:26:51;3.33;;;2.00;;
14306;SDS011;7237;49.500;11.400;2022-08-01T09:29:21;2.17;;;1.98;;
14306;SDS011;7237;49.500;11.400;2022-08-01T09:31:48;2.47;;;1.70;;
14306;SDS011;7237;49.500;11.400;2022-08-01T09:34:16;1.77;;;1.67;;
14306;SDS011;7237;49.500;11.400;2022-08-01T09:36:51;1.70;;;1.60;;
14306;SDS011;7237;49.500;11.400;2022-08-01T09:39:20;1.98;;;1.45;;
14306;SDS011;7237;49.500;11.400;2022-08-01T09:41:47;2.13;;;1.67;;
14306;SDS011;7237;49.500;11.400;2022-08-01T09:44:15;1.85;;;1.65;;
14306;SDS011;7237;49.500;11.400;2022-08-01T09:46:49;3.63;;;1.60;;
14306;SDS011;7237;49.500;11.400;2022-08-01T09:49:26;1.70;;;1.60;;
14306;SDS011;7237;49.500;11.400;2022-08-01T09:51:53;2.20;;;1.50;;
14306;SDS011;7237;49.500;11.400;2022-08-01T09:54:28;1.55;;;1.40;;
14306;SDS011;7237;49.500;11.400;2022-08-01T09:56:55;5.28;;;1.70;;
14306;SDS011;7237;49.500;11.400;2022-08-01T09:59:34;1.40;;;1.30;;
14306;SDS011;7237;49.500;11.400;2022-08-01T10:02:03;1.08;;;0.95;;
14306;SDS011;7237;49.500;11.400;2022-08-01T10:04:31;1.40;;;1.30;;
14306;SDS011;7237;49.500;11.400;2022-08-01T10:07:03;2.10;;;1.42;;
14306;SDS011;7237;49.500;11.400;2022-08-01T10:09:31;1.50;;;1.35;;
14306;SDS011;7237;49.500;11.400;2022-08-01T10:11:59;1.60;;;1.30;;
14306;SDS011;7237;49.500;11.400;2022-08-01T10:14:26;2.30;;;1.40;;
14306;SDS011;7237;49.500;11.400;2022-08-01T10:16:54;1.63;;;1.30;;
14306;SDS011;7237;49.500;11.400;2022-08-01T10:19:24;1.92;;;1.30;;
14306;SDS011;7237;49.500;11.400;2022-08-01T10:21:51;2.22;;;1.10;;
14306;SDS011;7237;49.500;11.400;2022-08-01T10:24:18;2.38;;;1.15;;
14306;SDS011;7237;49.500;11.400;2022-08-01T10:26:46;3.60;;;1.60;;
14306;SDS011;7237;49.500;11.400;2022-08-01T10:29:14;2.25;;;1.55;;
14306;SDS011;7237;49.500;11.400;2022-08-01T10:31:43;1.30;;;1.30;;
14306;SDS011;7237;49.500;11.400;2022-08-01T10:34:10;4.40;;;1.55;;
14306;SDS011;7237;49.500;11.400;2022-08-01T10:36:41;2.45;;;1.30;;
14306;SDS011;7237;49.500;11.400;2022-08-01T10:39:09;2.40;;;1.50;;
14306;SDS011;7237;49.500;11.400;2022-08-01T10:41:37;3.30;;;1.38;;
14306;SDS011;7237;49.500;11.400;2022-08-01T10:44:05;1.25;;;1.13;;
14306;SDS011;7237;49.500;11.400;2022-08-01T10:46:33;1.83;;;1.20;;
14306;SDS011;7237;49.500;11.400;2022-08-01T10:49:02;1.60;;;1.40;;
14306;SDS011;7237;49.500;11.400;2022-08-01T10:51:30;1.73;;;1.40;;
14306;SDS011;7237;49.500;11.400;2022-08-01T10:53:59;2.45;;;1.00;;
14306;SDS011;7237;49.500;11.400;2022-08-01T10:56:38;3.15;;;1.40;;
14306;SDS011;7237;49.500;11.400;2022-08-01T10:59:05;1.40;;;1.10;;
14306;SDS011;7237;49.500;11.400;2022-08-01T11:01:33;2.30;;;1.00;;
14306;SDS011;7237;49.500;11.400;2022-08-01T11:04:04;1.15;;;1.02;;
14306;SDS011;7237;49.500;11.400;2022-08-01T11:06:36;1.23;;;1.08;;
14306;SDS011;7237;49.500;11.400;2022-08-01T11:09:15;2.72;;;1.02;;
14306;SDS011;7237;49.500;11.400;2022-08-01T11:11:56;1.00;;;0.88;;
14306;SDS011;7237;49.500;11.400;2022-08-01T11:14:23;1.38;;;1.00;;
14306;SDS011;7237;49.500;11.400;2022-08-01T11:16:50;1.25;;;1.15;;
14306;SDS011;7237;49.500;11.400;2022-08-01T11:19:17;1.58;;;1.10;;
14306;SDS011;7237;49.500;11.400;2022-08-01T11:27:17;1.65;;;1.00;;
14306;SDS011;7237;49.500;11.400;2022-08-01T11:29:53;1.30;;;1.20;;
14306;SDS011;7237;49.500;11.400;2022-08-01T11:32:45;1.13;;;1.02;;
14306;SDS011;7237;49.500;11.400;2022-08-01T11:35:12;1.58;;;1.08;;
14306;SDS011;7237;49.500;11.400;2022-08-01T11:37:39;2.55;;;1.05;;
14306;SDS011;7237;49.500;11.400;2022-08-01T11:40:16;2.85;;;1.35;;
14306;SDS011;7237;49.500;11.400;2022-08-01T11:42:44;0.82;;;0.82;;
14306;SDS011;7237;49.500;11.400;2022-08-01T11:45:11;2.00;;;1.20;;
14306;SDS011;7237;49.500;11.400;2022-08-01T11:47:45;1.98;;;0.95;;
14306;SDS011;7237;49.500;11.400;2022-08-01T11:50:31;1.98;;;1.35;;
14306;SDS011;7237;49.500;11.400;2022-08-01T11:52:59;1.73;;;1.00;;
14306;SDS011;7237;49.500;11.400;2022-08-01T11:55:27;1.15;;;1.13;;
14306;SDS011;7237;49.500;11.400;2022-08-01T11:58:02;1.17;;;1.15;;
14306;SDS011;7237;49.500;11.400;2022-08-01T12:00:29;2.17;;;1.00;;
14306;SDS011;7237;49.500;11.400;2022-08-01T12:02:57;2.75;;;1.17;;
14306;SDS011;7237;49.500;11.400;2022-08-01T12:05:25;2.28;;;1.20;;
14306;SDS011;7237;49.500;11.400;2022-08-01T12:07:52;1.15;;;1.10;;
14306;SDS011;7237;49.500;11.400;2022-08-01T12:10:21;1.38;;;1.05;;
14306;SDS011;7237;49.500;11.400;2022-08-01T12:12:48;0.90;;;0.90;;
14306;SDS011;7237;49.500;11.400;2022-08-01T12:15:18;1.10;;;1.05;;
14306;SDS011;7237;49.500;11.400;2022-08-01T12:17:45;0.98;;;0.90;;
14306;SDS011;7237;49.500;11.400;2022-08-01T12:20:13;1.33;;;1.23;;
14306;SDS011;7237;49.500;11.400;2022-08-01T12:22:41;1.10;;;1.02;;
14306;SDS011;7237;49.500;11.400;2022-08-01T12:25:10;2.50;;;1.30;;
14306;SDS011;7237;49.500;11.400;2022-08-01T12:27:38;1.80;;;1.33;;
14306;SDS011;7237;49.500;11.400;2022-08-01T12:30:06;3.08;;;1.20;;
14306;SDS011;7237;49.500;11.400;2022-08-01T12:32:35;2.38;;;1.30;;
14306;SDS011;7237;49.500;11.400;2022-08-01T12:35:03;1.45;;;0.90;;
14306;SDS011;7237;49.500;11.400;2022-08-01T12:37:30;1.23;;;1.10;;
14306;SDS011;7237;49.500;11.400;2022-08-01T12:39:57;5.07;;;1.25;;
14306;SDS011;7237;49.500;11.400;2022-08-01T12:42:25;1.30;;;1.20;;
14306;SDS011;7237;49.500;11.400;2022-08-01T12:44:53;2.95;;;1.30;;
14306;SDS011;7237;49.500;11.400;2022-08-01T12:47:21;1.30;;;1.20;;
14306;SDS011;7237;49.500;11.400;2022-08-01T12:49:49;2.95;;;1.38;;
14306;SDS011;7237;49.500;11.400;2022-08-01T12:52:17;2.20;;;1.08;;
14306;SDS011;7237;49.500;11.400;2022-08-01T12:55:06;2.17;;;1.30;;
14306;SDS011;7237;49.500;11.400;2022-08-01T12:57:34;1.40;;;1.20;;
14306;SDS011;7237;49.500;11.400;2022-08-01T13:00:05;1.83;;;1.35;;
14306;SDS011;7237;49.500;11.400;2022-08-01T13:02:32;2.25;;;1.27;;
14306;SDS011;7237;49.500;11.400;2022-08-01T13:05:00;4.03;;;1.33;;
14306;SDS011;7237;49.500;11.400;2022-08-01T13:07:34;1.42;;;1.33;;
14306;SDS011;7237;49.500;11.400;2022-08-01T13:10:01;2.03;;;1.45;;
14306;SDS011;7237;49.500;11.400;2022-08-01T13:12:28;1.45;;;1.35;;
14306;SDS011;7237;49.500;11.400;2022-08-01T13:14:55;1.85;;;1.30;;
14306;SDS011;7237;49.500;11.400;2022-08-01T13:17:29;4.05;;;1.30;;
14306;SDS011;7237;49.500;11.400;2022-08-01T13:19:56;3.38;;;1.40;;
14306;SDS011;7237;49.500;11.400;2022-08-01T13:22:32;1.35;;;1.27;;
14306;SDS011;7237;49.500;11.400;2022-08-01T13:25:09;2.53;;;1.20;;
14306;SDS011;7237;49.500;11.400;2022-08-01T13:27:36;1.50;;;1.40;;
14306;SDS011;7237;49.500;11.400;2022-08-01T13:30:10;1.60;;;1.50;;
14306;SDS011;7237;49.500;11.400;2022-08-01T13:32:37;3.22;;;1.40;;
14306;SDS011;7237;49.500;11.400;2022-08-01T13:35:05;1.35;;;1.25;;
14306;SDS011;7237;49.500;11.400;2022-08-01T13:37:34;5.15;;;1.60;;
14306;SDS011;7237;49.500;11.400;2022-08-01T13:40:01;1.60;;;1.50;;
14306;SDS011;7237;49.500;11.400;2022-08-01T13:42:28;1.50;;;1.40;;
14306;SDS011;7237;49.500;11.400;2022-08-01T13:44:55;1.30;;;1.17;;
14306;SDS011;7237;49.500;11.400;2022-08-01T13:47:22;2.60;;;1.40;;
14306;SDS011;7237;49.500;11.400;2022-08-01T13:49:49;2.35;;;1.40;;
14306;SDS011;7237;49.500;11.400;2022-08-01T13:52:16;1.92;;;1.50;;
14306;SDS011;7237;49.500;11.400;2022-08-01T13:54:44;1.55;;;1.45;;
14306;SDS011;7237;49.500;11.400;2022-08-01T13:57:11;3.75;;;1.40;;
14306;SDS011;7237;49.500;11.400;2022-08-01T13:59:39;1.67;;;1.33;;
14306;SDS011;7237;49.500;11.400;2022-08-01T14:02:06;1.25;;;1.25;;
14306;SDS011;7237;49.500;11.400;2022-08-01T14:04:33;3.88;;;1.40;;
14306;SDS011;7237;49.500;11.400;2022-08-01T14:07:00;1.20;;;1.20;;
14306;SDS011;7237;49.500;11.400;2022-08-01T14:09:27;1.52;;;1.27;;
14306;SDS011;7237;49.500;11.400;2022-08-01T14:11:55;1.40;;;1.30;;
14306;SDS011;7237;49.500;11.400;2022-08-01T14:14:22;2.13;;;1.45;;
14306;SDS011;7237;49.500;11.400;2022-08-01T14:16:49;3.70;;;1.40;;
14306;SDS011;7237;49.500;11.400;2022-08-01T14:19:16;1.38;;;1.30;;
14306;SDS011;7237;49.500;11.400;2022-08-01T14:21:43;1.20;;;1.20;;
14306;SDS011;7237;49.500;11.400;2022-08-01T14:24:10;1.20;;;1.10;;
14306;SDS011;7237;49.500;11.400;2022-08-01T14:26:38;1.17;;;1.00;;
14306;SDS011;7237;49.500;11.400;2022-08-01T14:29:06;1.50;;;1.40;;
14306;SDS011;7237;49.500;11.400;2022-08-01T14:31:33;1.38;;;1.27;;
14306;SDS011;7237;49.500;11.400;2022-08-01T14:34:00;1.90;;;1.30;;
14306;SDS011;7237;49.500;11.400;2022-08-01T14:36:27;2.65;;;1.42;;
14306;SDS011;7237;49.500;11.400;2022-08-01T14:38:54;2.25;;;1.30;;
14306;SDS011;7237;49.500;11.400;2022-08-01T14:41:21;2.15;;;1.25;;
14306;SDS011;7237;49.500;11.400;2022-08-01T14:43:48;1.50;;;1.40;;
14306;SDS011;7237;49.500;11.400;2022-08-01T14:46:17;3.72;;;1.50;;
14306;SDS011;7237;49.500;11.400;2022-08-01T14:48:44;1.48;;;1.30;;
14306;SDS011;7237;49.500;11.400;2022-08-01T14:51:11;2.67;;;1.10;;
14306;SDS011;7237;49.500;11.400;2022-08-01T14:53:38;2.55;;;1.40;;
14306;SDS011;7237;49.500;11.400;2022-08-01T14:56:05;6.35;;;1.30;;
14306;SDS011;7237;49.500;11.400;2022-08-01T14:58:33;1.25;;;1.17;;
14306;SDS011;7237;49.500;11.400;2022-08-01T15:01:00;1.45;;;1.35;;